Time;durP1;ratioP1;P1;durP2;ratioP2;P2;SDS_P1;SDS_P2;PMS_P1;PMS_P2;Temp;Humidity;BMP_temperature;BMP_pressure;BME280_temperature;BME280_humidity;BME280_pressure;Samples;Min_cycle;Max_cycle;Signal;HPM_P1;HPM_P2
2023/09/24 00:01:58;;;;;;;22.73;4.18;;;;;;;;;;10415896;28;20059;-74
2023/09/24 00:06:59;;;;;;;147.82;130.43;;;;;;;;;;10420616;28;20333;-74
2023/09/24 00:11:59;;;;;;;448.20;411.08;;;;;;;;;;10420043;28;20329;-75
2023/09/24 00:17:00;;;;;;;19.57;5.33;;;;;;;;;;10402449;28;20580;-76
2023/09/24 00:22:00;;;;;;;33.90;5.67;;;;;;;;;;10419758;28;20298;-75
2023/09/24 00:27:01;;;;;;;24.27;4.30;;;;;;;;;;10419351;28;20099;-75
2023/09/24 00:32:01;;;;;;;27.40;5.10;;;;;;;;;;10419245;28;20021;-76
2023/09/24 00:37:01;;;;;;;27.00;5.03;;;;;;;;;;10419114;28;20116;-73
2023/09/24 00:42:01;;;;;;;32.05;6.43;;;;;;;;;;10419158;28;20025;-74
2023/09/24 00:47:02;;;;;;;21.73;5.20;;;;;;;;;;10418141;28;20307;-75
2023/09/24 00:52:02;;;;;;;27.95;6.72;;;;;;;;;;10419124;28;20092;-74
2023/09/24 00:57:03;;;;;;;26.52;6.32;;;;;;;;;;10418511;28;20027;-74
2023/09/24 01:02:03;;;;;;;30.85;6.55;;;;;;;;;;10418712;28;20021;-75
2023/09/24 01:07:03;;;;;;;28.93;5.87;;;;;;;;;;10418706;28;20033;-74
2023/09/24 01:12:04;;;;;;;35.20;9.27;;;;;;;;;;10417717;28;20056;-75
2023/09/24 01:17:04;;;;;;;24.40;4.77;;;;;;;;;;10418390;28;20323;-76
2023/09/24 01:22:05;;;;;;;34.63;8.65;;;;;;;;;;10418141;28;20409;-75
2023/09/24 01:27:06;;;;;;;25.52;6.43;;;;;;;;;;10417419;28;20045;-75
2023/09/24 01:32:06;;;;;;;19.73;5.18;;;;;;;;;;10417295;28;20056;-75
2023/09/24 01:37:08;;;;;;;18.27;4.80;;;;;;;;;;10399653;28;20342;-75
2023/09/24 01:42:13;;;;;;;21.90;5.13;;;;;;;;;;10399285;28;20295;-74
2023/09/24 01:47:13;;;;;;;26.83;5.97;;;;;;;;;;10416967;28;20049;-73
2023/09/24 01:52:15;;;;;;;23.23;5.70;;;;;;;;;;10416670;28;20079;-73
2023/09/24 01:57:15;;;;;;;24.45;7.45;;;;;;;;;;10416010;28;20029;-73
2023/09/24 02:02:15;;;;;;;24.55;5.57;;;;;;;;;;10416747;28;20326;-73
2023/09/24 02:07:16;;;;;;;15.32;5.38;;;;;;;;;;10398653;28;20044;-73
2023/09/24 02:12:16;;;;;;;21.97;5.20;;;;;;;;;;10403370;28;20398;-74
2023/09/24 02:17:16;;;;;;;27.00;6.93;;;;;;;;;;10398661;28;20029;-74
2023/09/24 02:22:17;;;;;;;29.20;9.65;;;;;;;;;;10416068;28;20076;-75
2023/09/24 02:27:17;;;;;;;21.58;5.13;;;;;;;;;;10415938;28;20082;-75
2023/09/24 02:32:17;;;;;;;15.73;6.03;;;;;;;;;;10415910;28;20065;-75
2023/09/24 02:37:18;;;;;;;22.13;6.50;;;;;;;;;;10415931;28;20376;-74
2023/09/24 02:42:18;;;;;;;33.72;8.93;;;;;;;;;;10415499;28;20013;-74
2023/09/24 02:47:18;;;;;;;29.95;6.00;;;;;;;;;;10415389;28;20029;-74
2023/09/24 02:52:18;;;;;;;34.63;6.00;;;;;;;;;;10415565;28;20017;-73
2023/09/24 02:57:19;;;;;;;17.65;4.93;;;;;;;;;;10415537;28;20033;-75
2023/09/24 03:02:19;;;;;;;23.20;6.18;;;;;;;;;;10415231;28;20327;-75
2023/09/24 03:07:19;;;;;;;28.42;6.15;;;;;;;;;;10414969;28;20017;-74
2023/09/24 03:12:20;;;;;;;20.60;5.68;;;;;;;;;;10422337;28;20061;-74
2023/09/24 03:17:21;;;;;;;25.08;5.20;;;;;;;;;;10404860;28;20215;-75
2023/09/24 03:22:21;;;;;;;25.40;5.80;;;;;;;;;;10423160;28;20403;-75
2023/09/24 03:27:21;;;;;;;21.30;5.17;;;;;;;;;;10422371;28;20198;-75
2023/09/24 03:32:22;;;;;;;18.88;5.20;;;;;;;;;;10421724;28;20088;-75
2023/09/24 03:37:22;;;;;;;21.33;6.28;;;;;;;;;;10421252;28;20044;-75
2023/09/24 03:42:23;;;;;;;23.30;5.60;;;;;;;;;;10421668;28;20013;-72
2023/09/24 03:47:23;;;;;;;25.35;5.25;;;;;;;;;;10421567;28;20049;-75
2023/09/24 03:52:23;;;;;;;21.33;6.40;;;;;;;;;;10421969;28;20295;-74
2023/09/24 03:57:27;;;;;;;32.63;5.97;;;;;;;;;;10420560;28;20275;-75
2023/09/24 04:02:27;;;;;;;18.52;5.85;;;;;;;;;;10402028;28;20100;-75
2023/09/24 04:07:27;;;;;;;31.05;5.93;;;;;;;;;;10419973;28;20307;-74
2023/09/24 04:12:30;;;;;;;25.35;5.13;;;;;;;;;;10411756;28;20041;-74
2023/09/24 04:17:31;;;;;;;24.45;5.28;;;;;;;;;;10398252;28;20025;-75
2023/09/24 04:22:32;;;;;;;27.30;8.18;;;;;;;;;;10406091;28;20334;-74
2023/09/24 04:27:32;;;;;;;27.30;6.40;;;;;;;;;;10409399;28;20040;-74
2023/09/24 04:32:33;;;;;;;26.45;6.65;;;;;;;;;;10407065;28;20472;-75
2023/09/24 04:37:33;;;;;;;18.13;5.90;;;;;;;;;;10405795;28;20037;-74
2023/09/24 04:42:34;;;;;;;34.95;6.75;;;;;;;;;;10407971;28;20025;-73
2023/09/24 04:47:34;;;;;;;20.83;6.20;;;;;;;;;;10420402;28;20104;-75
2023/09/24 04:52:36;;;;;;;24.27;6.03;;;;;;;;;;10417096;28;20100;-73
2023/09/24 04:57:37;;;;;;;42.83;7.43;;;;;;;;;;10412185;28;20021;-74
2023/09/24 05:02:37;;;;;;;20.60;6.38;;;;;;;;;;10411737;28;20511;-75
2023/09/24 05:07:37;;;;;;;25.65;6.45;;;;;;;;;;10400639;28;20345;-74
2023/09/24 05:12:38;;;;;;;34.22;6.78;;;;;;;;;;10416712;28;20049;-75
2023/09/24 05:17:39;;;;;;;33.90;7.87;;;;;;;;;;10417378;28;20032;-74
2023/09/24 05:22:39;;;;;;;17.70;6.00;;;;;;;;;;10416341;28;20302;-70
2023/09/24 05:27:40;;;;;;;37.67;6.22;;;;;;;;;;10411430;28;20299;-73
2023/09/24 05:32:40;;;;;;;25.90;7.22;;;;;;;;;;10388863;28;20280;-74
2023/09/24 05:37:40;;;;;;;22.77;5.95;;;;;;;;;;10382383;28;20029;-72
2023/09/24 05:42:44;;;;;;;687.10;635.87;;;;;;;;;;10380318;28;20509;-70
2023/09/24 05:47:44;;;;;;;31.98;6.18;;;;;;;;;;10385790;28;20026;-70
2023/09/24 05:52:45;;;;;;;29.45;7.30;;;;;;;;;;10410866;23;20057;-78
2023/09/24 05:57:45;;;;;;;31.17;7.57;;;;;;;;;;10365078;28;20045;-80
2023/09/24 06:02:47;;;;;;;32.70;7.47;;;;;;;;;;10364828;28;20575;-81
2023/09/24 06:07:48;;;;;;;25.67;6.25;;;;;;;;;;10378340;28;20120;-77
2023/09/24 06:12:48;;;;;;;23.02;7.38;;;;;;;;;;10353063;28;20429;-78
2023/09/24 06:17:49;;;;;;;22.67;5.97;;;;;;;;;;10349546;28;20544;-79
2023/09/24 06:22:53;;;;;;;19.77;5.53;;;;;;;;;;10340285;28;20189;-85
2023/09/24 06:27:54;;;;;;;21.48;5.10;;;;;;;;;;10325942;28;20121;-77
2023/09/24 06:32:54;;;;;;;27.05;7.10;;;;;;;;;;10357313;28;20021;-80
2023/09/24 06:37:55;;;;;;;25.05;5.43;;;;;;;;;;10367639;28;20030;-77
2023/09/24 06:42:58;;;;;;;17.63;5.03;;;;;;;;;;10346355;28;20013;-82
2023/09/24 06:48:01;;;;;;;22.13;5.32;;;;;;;;;;10357403;28;20571;-77
2023/09/24 06:53:01;;;;;;;17.40;4.93;;;;;;;;;;10357525;28;20088;-83
2023/09/24 06:58:02;;;;;;;26.00;5.70;;;;;;;;;;10355314;28;20036;-83
2023/09/24 07:03:03;;;;;;;28.67;5.90;;;;;;;;;;10372331;28;20132;-83
2023/09/24 07:08:04;;;;;;;22.10;5.47;;;;;;;;;;10350898;28;20367;-82
2023/09/24 07:13:05;;;;;;;29.00;7.38;;;;;;;;;;10374313;28;20022;-82
2023/09/24 07:18:05;;;;;;;24.38;5.57;;;;;;;;;;10354617;28;20021;-83
2023/09/24 07:23:05;;;;;;;18.07;5.53;;;;;;;;;;10374733;28;20037;-74
2023/09/24 07:28:05;;;;;;;22.05;5.95;;;;;;;;;;10357792;28;20673;-78
2023/09/24 07:33:06;;;;;;;19.77;5.70;;;;;;;;;;10373607;28;20104;-77
2023/09/24 07:38:07;;;;;;;20.42;6.05;;;;;;;;;;10358265;28;20060;-81
2023/09/24 07:43:08;;;;;;;27.27;7.38;;;;;;;;;;10361337;28;20022;-82
2023/09/24 07:48:13;;;;;;;18.55;4.95;;;;;;;;;;10372520;28;20029;-79
2023/09/24 07:53:15;;;;;;;19.60;5.60;;;;;;;;;;10368200;28;20041;-84
2023/09/24 07:58:15;;;;;;;21.17;4.55;;;;;;;;;;10348293;28;20045;-77
2023/09/24 08:03:16;;;;;;;21.20;4.72;;;;;;;;;;10402365;28;20021;-73
2023/09/24 08:08:17;;;;;;;21.00;4.60;;;;;;;;;;10361534;28;20041;-74
2023/09/24 08:13:20;;;;;;;18.25;4.63;;;;;;;;;;10375494;28;20025;-77
2023/09/24 08:18:26;;;;;;;16.55;4.03;;;;;;;;;;10383322;28;20021;-75
2023/09/24 08:23:26;;;;;;;20.17;5.07;;;;;;;;;;10384695;28;20028;-74
2023/09/24 08:28:28;;;;;;;26.08;6.55;;;;;;;;;;10370101;28;20016;-75
2023/09/24 08:33:28;;;;;;;29.52;5.03;;;;;;;;;;10385605;28;20505;-77
2023/09/24 08:38:28;;;;;;;20.48;4.97;;;;;;;;;;10363254;28;20022;-84
2023/09/24 08:43:30;;;;;;;15.55;4.25;;;;;;;;;;10352601;28;20470;-80
2023/09/24 08:48:31;;;;;;;13.15;4.65;;;;;;;;;;10368858;28;20498;-77
2023/09/24 08:53:33;;;;;;;28.38;5.68;;;;;;;;;;10356629;28;20133;-77
2023/09/24 08:58:33;;;;;;;28.08;5.25;;;;;;;;;;10356987;28;20469;-82
2023/09/24 09:03:34;;;;;;;23.63;6.28;;;;;;;;;;10363562;28;20088;-85
2023/09/24 09:08:50;;;;;;;20.77;5.10;;;;;;;;;;10351220;28;20022;-84
2023/09/24 09:13:52;;;;;;;18.05;5.22;;;;;;;;;;10349958;28;20024;-78
2023/09/24 09:19:00;;;;;;;588.60;538.40;;;;;;;;;;10348412;28;20476;-80
2023/09/24 09:24:01;;;;;;;25.15;5.68;;;;;;;;;;10371366;28;20498;-83
2023/09/24 09:29:04;;;;;;;28.52;5.35;;;;;;;;;;10359522;28;20036;-81
2023/09/24 09:34:06;;;;;;;19.70;4.75;;;;;;;;;;10355043;28;20033;-80
2023/09/24 09:39:07;;;;;;;12.63;3.88;;;;;;;;;;10356497;28;20406;-85
2023/09/24 09:44:09;;;;;;;29.00;4.43;;;;;;;;;;10349119;28;20034;-85
2023/09/24 09:49:10;;;;;;;21.83;5.05;;;;;;;;;;10364860;28;20074;-80
2023/09/24 09:54:11;;;;;;;34.78;6.28;;;;;;;;;;10343113;28;20176;-80
2023/09/24 09:59:11;;;;;;;24.05;5.53;;;;;;;;;;10347179;28;20034;-75
2023/09/24 10:04:16;;;;;;;37.23;4.30;;;;;;;;;;10363960;28;20026;-83
2023/09/24 10:09:37;;;;;;;19.88;4.30;;;;;;;;;;10366894;28;20026;-85
2023/09/24 10:14:45;;;;;;;21.55;4.60;;;;;;;;;;10350987;28;20060;-79
2023/09/24 10:19:47;;;;;;;18.08;5.07;;;;;;;;;;10361867;28;20037;-85
2023/09/24 10:24:49;;;;;;;24.75;5.55;;;;;;;;;;10358888;28;20024;-72
2023/09/24 10:29:51;;;;;;;18.50;4.40;;;;;;;;;;10384645;28;20156;-81
2023/09/24 10:34:58;;;;;;;24.15;4.65;;;;;;;;;;10376185;28;20417;-79
2023/09/24 10:40:10;;;;;;;27.20;5.15;;;;;;;;;;10388996;28;20030;-80
2023/09/24 10:45:14;;;;;;;21.50;4.40;;;;;;;;;;10371727;28;20093;-77
2023/09/24 10:50:23;;;;;;;21.15;5.07;;;;;;;;;;10364592;28;20045;-81
2023/09/24 10:55:29;;;;;;;16.83;4.78;;;;;;;;;;10344950;28;20017;-79
2023/09/24 11:00:30;;;;;;;21.50;4.13;;;;;;;;;;10364607;28;20083;-81
2023/09/24 11:05:40;;;;;;;16.88;4.10;;;;;;;;;;10345170;28;20584;-80
2023/09/24 11:10:40;;;;;;;18.95;4.00;;;;;;;;;;10349206;28;20070;-82
2023/09/24 11:15:41;;;;;;;19.97;4.63;;;;;;;;;;10382289;28;20021;-74
2023/09/24 11:20:49;;;;;;;20.02;5.35;;;;;;;;;;10405804;28;20045;-72
2023/09/24 11:25:52;;;;;;;20.10;5.15;;;;;;;;;;10389148;28;20041;-73
2023/09/24 11:30:52;;;;;;;20.50;4.47;;;;;;;;;;10384885;28;20029;-72
2023/09/24 11:41:58;;;;;;;22.55;4.35;;;;;;;;;;10525782;27;20432;-73
2023/09/24 11:46:58;;;;;;;17.20;5.37;;;;;;;;;;10522882;28;20359;-68
2023/09/24 11:52:06;;;;;;;34.75;4.00;;;;;;;;;;10524189;28;20507;-69
2023/09/24 11:57:09;;;;;;;24.65;5.75;;;;;;;;;;10524838;28;20035;-87
2023/09/24 12:02:10;;;;;;;11.80;3.60;;;;;;;;;;10528507;28;20024;-75
2023/09/24 12:07:10;;;;;;;10.85;3.80;;;;;;;;;;10521584;28;20326;-77
2023/09/24 12:12:10;;;;;;;23.98;4.05;;;;;;;;;;10527689;28;20056;-79
2023/09/24 12:17:10;;;;;;;19.55;4.55;;;;;;;;;;10523517;28;20202;-75
2023/09/24 12:22:11;;;;;;;21.08;4.63;;;;;;;;;;10523995;28;20032;-81
2023/09/24 12:27:12;;;;;;;23.67;4.60;;;;;;;;;;10531425;28;20024;-85
2023/09/24 12:32:12;;;;;;;19.47;5.27;;;;;;;;;;10529905;28;20020;-85
2023/09/24 12:37:15;;;;;;;17.00;3.77;;;;;;;;;;10531735;28;20097;-84
2023/09/24 12:42:15;;;;;;;12.95;3.63;;;;;;;;;;10529667;28;20405;-82
2023/09/24 12:47:15;;;;;;;19.27;5.10;;;;;;;;;;10522761;28;20020;-70
2023/09/24 12:52:16;;;;;;;24.73;4.70;;;;;;;;;;10497513;28;20586;-71
2023/09/24 12:57:16;;;;;;;26.48;4.93;;;;;;;;;;10492064;28;20037;-70
2023/09/24 13:02:17;;;;;;;15.98;4.15;;;;;;;;;;10491222;28;20028;-71
2023/09/24 13:07:17;;;;;;;17.58;4.43;;;;;;;;;;10491520;28;20079;-70
2023/09/24 13:12:18;;;;;;;27.45;5.60;;;;;;;;;;10492570;28;20033;-70
2023/09/24 13:17:18;;;;;;;9.70;3.95;;;;;;;;;;10488711;28;20405;-71
2023/09/24 13:22:18;;;;;;;25.63;5.07;;;;;;;;;;10488862;28;20034;-70
2023/09/24 13:27:19;;;;;;;16.43;4.70;;;;;;;;;;10489363;28;20032;-71
2023/09/24 13:32:21;;;;;;;18.25;5.38;;;;;;;;;;10491033;28;20273;-71
2023/09/24 13:37:21;;;;;;;23.60;5.15;;;;;;;;;;10491192;28;20059;-70
2023/09/24 13:42:21;;;;;;;22.37;4.73;;;;;;;;;;10490794;28;20024;-72
2023/09/24 13:47:21;;;;;;;26.17;4.30;;;;;;;;;;10492475;28;20240;-69
2023/09/24 13:52:22;;;;;;;26.52;4.97;;;;;;;;;;10508512;28;20051;-69
2023/09/24 13:57:22;;;;;;;23.80;6.32;;;;;;;;;;10493001;28;20036;-70
2023/09/24 14:02:22;;;;;;;27.42;6.60;;;;;;;;;;10490026;28;20020;-69
2023/09/24 14:07:22;;;;;;;25.77;8.25;;;;;;;;;;10490066;28;20032;-71
2023/09/24 14:12:24;;;;;;;29.45;8.73;;;;;;;;;;10488475;28;20039;-70
2023/09/24 14:17:25;;;;;;;21.73;7.68;;;;;;;;;;10486137;28;20022;-69
2023/09/24 14:22:25;;;;;;;30.90;10.52;;;;;;;;;;10487772;28;20024;-70
2023/09/24 14:27:26;;;;;;;27.75;11.65;;;;;;;;;;10490686;28;20047;-70
2023/09/24 14:32:26;;;;;;;30.02;8.75;;;;;;;;;;10491284;28;20035;-75
2023/09/24 14:37:28;;;;;;;26.25;9.32;;;;;;;;;;10494944;28;20539;-77
2023/09/24 14:42:29;;;;;;;27.98;8.85;;;;;;;;;;10491171;28;20020;-69
2023/09/24 14:47:30;;;;;;;22.85;8.32;;;;;;;;;;10489325;28;20016;-76
2023/09/24 14:52:30;;;;;;;43.10;10.98;;;;;;;;;;10489109;28;20103;-70
2023/09/24 14:57:31;;;;;;;31.23;9.88;;;;;;;;;;10490233;28;20276;-71
2023/09/24 15:02:31;;;;;;;41.50;14.40;;;;;;;;;;10489068;28;20013;-71
2023/09/24 15:07:31;;;;;;;36.22;10.13;;;;;;;;;;10490061;28;20040;-71
2023/09/24 15:12:31;;;;;;;30.08;10.70;;;;;;;;;;10489572;28;20065;-72
2023/09/24 15:17:32;;;;;;;32.88;10.10;;;;;;;;;;10489986;28;20147;-70
2023/09/24 15:22:32;;;;;;;36.88;10.95;;;;;;;;;;10489098;28;20523;-69
2023/09/24 15:27:33;;;;;;;25.10;8.13;;;;;;;;;;10488168;28;20039;-69
2023/09/24 15:32:33;;;;;;;29.75;10.05;;;;;;;;;;10489110;28;20084;-74
2023/09/24 15:37:33;;;;;;;27.90;11.07;;;;;;;;;;10494479;28;20101;-72
2023/09/24 15:42:36;;;;;;;39.97;10.53;;;;;;;;;;10529572;28;20353;-72
2023/09/24 15:47:37;;;;;;;35.60;10.63;;;;;;;;;;10530482;28;20016;-72
2023/09/24 15:52:39;;;;;;;30.02;11.32;;;;;;;;;;10529954;28;20031;-73
2023/09/24 15:57:40;;;;;;;31.98;9.85;;;;;;;;;;10531279;28;20034;-72
2023/09/24 16:02:40;;;;;;;25.35;8.48;;;;;;;;;;10530313;28;20020;-79
2023/09/24 16:07:43;;;;;;;26.90;8.23;;;;;;;;;;10512623;28;20051;-78
2023/09/24 16:12:43;;;;;;;35.42;8.73;;;;;;;;;;10533892;28;20020;-75
2023/09/24 16:17:44;;;;;;;28.10;8.40;;;;;;;;;;10516359;28;20024;-79
2023/09/24 16:22:47;;;;;;;28.00;9.60;;;;;;;;;;10531733;28;20446;-72
2023/09/24 16:27:48;;;;;;;30.85;8.82;;;;;;;;;;10536559;28;20016;-79
2023/09/24 16:32:49;;;;;;;28.55;9.43;;;;;;;;;;10523706;28;20097;-81
2023/09/24 16:37:50;;;;;;;20.15;8.57;;;;;;;;;;10543267;28;20110;-81
2023/09/24 16:42:51;;;;;;;34.97;8.65;;;;;;;;;;10540473;28;20302;-79
2023/09/24 16:47:52;;;;;;;30.25;9.30;;;;;;;;;;10532331;28;20035;-82
2023/09/24 16:52:52;;;;;;;30.23;9.40;;;;;;;;;;10520991;28;20488;-80
2023/09/24 16:57:53;;;;;;;21.48;7.65;;;;;;;;;;10535588;28;20054;-73
2023/09/24 17:02:53;;;;;;;27.58;7.40;;;;;;;;;;10536959;28;20015;-75
2023/09/24 17:07:56;;;;;;;19.17;8.38;;;;;;;;;;10538166;28;20023;-76
2023/09/24 17:12:56;;;;;;;20.10;8.68;;;;;;;;;;10520385;28;20019;-80
2023/09/24 17:17:57;;;;;;;33.10;10.30;;;;;;;;;;10518600;28;20032;-69
2023/09/24 17:22:58;;;;;;;25.53;12.63;;;;;;;;;;10536221;28;20582;-71
2023/09/24 17:27:58;;;;;;;30.95;9.23;;;;;;;;;;10517032;28;20018;-70
2023/09/24 17:32:59;;;;;;;25.83;8.55;;;;;;;;;;10534823;28;20023;-69
2023/09/24 17:37:59;;;;;;;21.60;7.77;;;;;;;;;;10544936;28;20089;-76
2023/09/24 17:42:59;;;;;;;25.33;7.88;;;;;;;;;;10534944;28;20471;-70
2023/09/24 17:48:00;;;;;;;30.33;7.50;;;;;;;;;;10534718;28;20171;-70
2023/09/24 17:53:00;;;;;;;23.92;8.13;;;;;;;;;;10534309;28;20063;-68
2023/09/24 17:58:00;;;;;;;25.23;8.00;;;;;;;;;;10533154;28;20325;-70
2023/09/24 18:03:00;;;;;;;22.30;7.53;;;;;;;;;;10516024;28;20058;-69
2023/09/24 18:08:01;;;;;;;23.58;7.78;;;;;;;;;;10534148;28;20321;-69
2023/09/24 18:13:01;;;;;;;23.52;7.70;;;;;;;;;;10533949;28;20024;-73
2023/09/24 18:18:01;;;;;;;17.03;7.17;;;;;;;;;;10515481;28;20385;-76
2023/09/24 18:23:02;;;;;;;25.90;7.13;;;;;;;;;;10537638;28;20031;-79
2023/09/24 18:28:02;;;;;;;15.30;6.03;;;;;;;;;;10516855;28;20282;-71
2023/09/24 18:33:03;;;;;;;24.83;8.18;;;;;;;;;;10533711;28;20596;-79
2023/09/24 18:38:04;;;;;;;19.58;6.45;;;;;;;;;;10522963;28;20067;-90
2023/09/24 18:43:05;;;;;;;20.52;7.03;;;;;;;;;;10519175;28;20291;-74
2023/09/24 18:48:05;;;;;;;27.52;6.78;;;;;;;;;;10533226;28;20032;-75
2023/09/24 18:53:05;;;;;;;28.30;8.27;;;;;;;;;;10515629;28;20226;-72
2023/09/24 18:58:06;;;;;;;24.17;9.13;;;;;;;;;;10533214;28;20310;-72
2023/09/24 19:03:06;;;;;;;23.67;8.73;;;;;;;;;;10533789;28;20062;-72
2023/09/24 19:08:06;;;;;;;22.85;8.45;;;;;;;;;;10533232;28;20253;-72
2023/09/24 19:13:08;;;;;;;31.50;8.38;;;;;;;;;;10532775;28;20056;-88
2023/09/24 19:18:08;;;;;;;19.27;9.77;;;;;;;;;;10530696;28;20321;-78
2023/09/24 19:23:08;;;;;;;24.47;8.80;;;;;;;;;;10536162;28;20024;-71
2023/09/24 19:28:09;;;;;;;21.20;8.35;;;;;;;;;;10533423;28;20026;-78
2023/09/24 19:33:09;;;;;;;39.17;22.83;;;;;;;;;;10513969;28;20073;-75
2023/09/24 19:38:09;;;;;;;75.95;69.18;;;;;;;;;;10523750;28;20342;-70
2023/09/24 19:43:10;;;;;;;22.50;8.07;;;;;;;;;;10493730;28;20032;-73
2023/09/24 19:48:10;;;;;;;26.27;8.82;;;;;;;;;;10497939;28;20225;-80
2023/09/24 19:53:11;;;;;;;23.20;8.80;;;;;;;;;;10494762;28;20353;-78
2023/09/24 19:58:11;;;;;;;21.83;9.55;;;;;;;;;;10490621;28;20091;-77
2023/09/24 20:03:11;;;;;;;21.67;9.43;;;;;;;;;;10498759;28;20032;-76
2023/09/24 20:08:20;;;;;;;17.13;7.93;;;;;;;;;;10503031;28;20097;-77
2023/09/24 20:13:20;;;;;;;24.45;8.13;;;;;;;;;;10503349;28;20047;-79
2023/09/24 20:18:20;;;;;;;20.40;7.20;;;;;;;;;;10503416;28;20092;-78
2023/09/24 20:23:21;;;;;;;21.27;6.25;;;;;;;;;;10488072;28;20016;-70
2023/09/24 20:28:22;;;;;;;18.10;7.30;;;;;;;;;;10490203;22;20072;-76
2023/09/24 20:33:22;;;;;;;19.23;6.25;;;;;;;;;;10415283;28;20390;-80
2023/09/24 20:38:25;;;;;;;16.48;6.43;;;;;;;;;;10437892;28;20021;-79
2023/09/24 20:43:25;;;;;;;13.93;7.07;;;;;;;;;;10437428;28;20028;-79
2023/09/24 20:48:26;;;;;;;26.37;7.97;;;;;;;;;;10446282;28;20036;-80
2023/09/24 20:53:27;;;;;;;23.73;7.87;;;;;;;;;;10446291;28;20471;-83
2023/09/24 20:58:27;;;;;;;32.17;7.47;;;;;;;;;;10428387;28;20194;-84
2023/09/24 21:03:29;;;;;;;21.35;6.40;;;;;;;;;;10441012;28;20033;-82
2023/09/24 21:08:29;;;;;;;18.48;7.07;;;;;;;;;;10447666;28;20017;-84
2023/09/24 21:13:30;;;;;;;19.88;7.10;;;;;;;;;;10447973;28;20025;-80
2023/09/24 21:18:31;;;;;;;15.73;6.07;;;;;;;;;;10432203;28;20087;-83
2023/09/24 21:23:31;;;;;;;18.92;6.35;;;;;;;;;;10434258;28;20136;-84
2023/09/24 21:28:33;;;;;;;19.65;5.68;;;;;;;;;;10432754;28;20052;-82
2023/09/24 21:33:35;;;;;;;19.08;5.70;;;;;;;;;;10440642;28;20499;-81
2023/09/24 21:38:36;;;;;;;12.73;5.00;;;;;;;;;;10414033;28;20033;-82
2023/09/24 21:43:37;;;;;;;10.40;5.83;;;;;;;;;;10452333;28;20021;-78
2023/09/24 21:48:39;;;;;;;142.93;133.75;;;;;;;;;;10448461;28;20062;-80
2023/09/24 21:53:41;;;;;;;20.88;5.63;;;;;;;;;;10452974;28;20041;-76
2023/09/24 21:58:41;;;;;;;12.88;6.20;;;;;;;;;;10413444;28;20056;-78
2023/09/24 22:03:41;;;;;;;48.85;45.45;;;;;;;;;;10438720;28;20021;-78
2023/09/24 22:08:42;;;;;;;286.45;265.42;;;;;;;;;;10422144;28;20021;-76
2023/09/24 22:13:42;;;;;;;401.60;373.63;;;;;;;;;;10446705;28;20025;-78
2023/09/24 22:18:43;;;;;;;647.10;598.37;;;;;;;;;;10438211;28;20016;-76
2023/09/24 22:23:43;;;;;;;544.33;505.23;;;;;;;;;;10440008;28;20271;-80
2023/09/24 22:28:43;;;;;;;266.90;249.35;;;;;;;;;;10442147;28;21044;-82
2023/09/24 22:33:44;;;;;;;612.13;566.58;;;;;;;;;;10440535;28;20562;-79
2023/09/24 22:38:44;;;;;;;719.97;663.50;;;;;;;;;;10440678;28;20478;-81
2023/09/24 22:43:44;;;;;;;460.75;428.60;;;;;;;;;;10440148;28;20031;-81
2023/09/24 22:48:45;;;;;;;787.97;726.50;;;;;;;;;;10438997;28;20031;-80
2023/09/24 22:53:47;;;;;;;1036.78;952.42;;;;;;;;;;10451883;28;20058;-78
2023/09/24 22:58:51;;;;;;;25.45;16.42;;;;;;;;;;10452119;28;20029;-79
2023/09/24 23:03:52;;;;;;;813.08;749.50;;;;;;;;;;10460915;28;20017;-79
2023/09/24 23:08:55;;;;;;;901.77;831.30;;;;;;;;;;10449530;28;20021;-81
2023/09/24 23:13:56;;;;;;;9.55;3.70;;;;;;;;;;10446654;28;20033;-77
2023/09/24 23:18:57;;;;;;;15.15;3.75;;;;;;;;;;10436204;28;20043;-75
2023/09/24 23:23:57;;;;;;;84.80;46.42;;;;;;;;;;10437623;28;20406;-79
2023/09/24 23:29:00;;;;;;;12.30;3.75;;;;;;;;;;10436639;28;20049;-78
2023/09/24 23:34:01;;;;;;;12.70;4.43;;;;;;;;;;10422578;28;20025;-84
2023/09/24 23:39:04;;;;;;;13.02;3.72;;;;;;;;;;10441884;28;20021;-81
2023/09/24 23:44:05;;;;;;;13.85;4.50;;;;;;;;;;10426185;28;20124;-84
2023/09/24 23:49:05;;;;;;;11.05;4.10;;;;;;;;;;10441216;28;20039;-79
2023/09/24 23:54:09;;;;;;;17.60;4.30;;;;;;;;;;10437992;28;20036;-82
2023/09/24 23:59:11;;;;;;;11.30;3.70;;;;;;;;;;10390334;28;20075;-84
